createdAt,value
2022-08-17T00:06:19.668Z,10.1
2022-08-17T00:16:50.351Z,8.97
2022-08-17T00:26:34.472Z,9.06
2022-08-17T01:16:50.427Z,10.03
2022-08-17T01:26:58.162Z,8.89
2022-08-17T01:37:05.855Z,8.65
2022-08-17T02:17:20.913Z,9.65
2022-08-17T02:47:33.960Z,9.77
2022-08-17T02:57:42.341Z,9.53
2022-08-17T03:07:50.643Z,9.3
2022-08-17T03:38:01.937Z,8.96
2022-08-17T03:58:12.429Z,8.18
2022-08-17T04:08:20.565Z,7.78
2022-08-17T04:18:28.760Z,8.09
2022-08-17T04:28:37.014Z,7.89
2022-08-17T04:38:45.323Z,8.34
2022-08-17T04:48:56.397Z,7.38
2022-08-17T04:58:54.699Z,7.08
2022-08-17T05:09:03.925Z,7.59
2022-08-17T05:19:12.123Z,7.76
2022-08-17T05:29:20.401Z,8.42
2022-08-17T05:39:28.249Z,8.32
2022-08-17T05:49:36.415Z,7.63
2022-08-17T05:59:44.543Z,8.3
2022-08-17T06:09:52.651Z,8.54
2022-08-17T06:20:01.013Z,8.26
2022-08-17T06:30:09.184Z,7.7
2022-08-17T06:40:17.476Z,7.79
2022-08-17T06:50:25.721Z,7.59
2022-08-17T07:10:36.342Z,8.15
2022-08-17T07:20:44.654Z,9.35
2022-08-17T07:30:51.806Z,9.13
2022-08-17T07:41:02.375Z,7.36
2022-08-17T07:51:00.206Z,6.99
2022-08-17T08:01:09.089Z,8.1
2022-08-17T08:11:18.343Z,7.78
2022-08-17T08:31:28.683Z,7.89
2022-08-17T08:41:36.858Z,7.85
2022-08-17T09:02:02.592Z,8
2022-08-17T09:31:57.238Z,8.52
2022-08-17T10:02:13.716Z,8.27
2022-08-17T10:12:10.313Z,8.45
2022-08-17T10:22:32.895Z,8.03
2022-08-17T10:32:23.616Z,8.4
2022-08-17T10:42:33.326Z,7.51
2022-08-17T10:53:32.689Z,7.04
2022-08-17T11:03:04.826Z,6.85
2022-08-17T11:12:53.076Z,6.32
2022-08-17T11:23:00.483Z,6.81
2022-08-17T11:33:10.376Z,6.93
2022-08-17T11:43:28.685Z,7.3
2022-08-17T11:53:35.190Z,6.9
2022-08-17T12:03:36.374Z,7.03
2022-08-17T12:13:40.674Z,7.4
2022-08-17T12:23:38.022Z,6.99
2022-08-17T12:33:58.965Z,6.76
2022-08-17T12:44:01.841Z,6.82
2022-08-17T12:54:04.542Z,7.08
2022-08-17T13:14:29.300Z,6.68
2022-08-17T13:24:57.372Z,6.07
2022-08-17T13:44:28.115Z,5.51
2022-08-17T13:54:39.976Z,5.88
2022-08-17T14:04:44.208Z,5.32
2022-08-17T14:15:06.446Z,5.08
2022-08-17T14:24:44.134Z,5.21
2022-08-17T14:34:47.835Z,4.93
2022-08-17T14:44:49.727Z,4.71
2022-08-17T14:54:57.232Z,5.11
2022-08-17T15:05:11.530Z,4.68
2022-08-17T15:15:04.621Z,4.96
2022-08-17T15:25:07.399Z,5.13
2022-08-17T15:35:07.226Z,4.48
2022-08-17T15:45:20.159Z,4.67
2022-08-17T15:55:22.070Z,4.41
2022-08-17T16:05:25.564Z,4.91
2022-08-17T16:15:33.758Z,4.91
2022-08-17T16:25:53.352Z,5.09
2022-08-17T16:35:51.761Z,5.47
2022-08-17T16:45:52.060Z,5.6
2022-08-17T16:56:04.027Z,5.19
2022-08-17T17:06:58.633Z,5.2
2022-08-17T17:17:16.351Z,4.97
2022-08-17T17:36:21.814Z,4.85
2022-08-17T17:56:40.400Z,4.26
2022-08-17T18:06:44.981Z,5.08
2022-08-17T18:26:58.858Z,6.04
2022-08-17T18:36:57.108Z,6.52
2022-08-17T18:47:05.325Z,5.91
2022-08-17T18:57:13.597Z,6.41
2022-08-17T19:07:21.971Z,9.49
2022-08-17T19:17:33.738Z,7.24
2022-08-17T19:27:41.721Z,8.22
2022-08-17T19:37:39.616Z,8.1
2022-08-17T19:47:54.661Z,8.72
2022-08-17T19:57:47.202Z,9.89
2022-08-17T20:07:46.535Z,11.25
2022-08-17T20:17:55.362Z,11.31
2022-08-17T20:28:06.094Z,9.33
2022-08-17T20:38:10.827Z,9.25
2022-08-17T20:48:36.647Z,9.13
2022-08-17T20:58:30.124Z,9.26
2022-08-17T21:08:34.756Z,10.69
2022-08-17T21:18:43.984Z,8.24
2022-08-17T21:29:00.105Z,8.44
2022-08-17T21:38:57.654Z,8.85
2022-08-17T21:49:05.075Z,8.68
2022-08-17T21:59:12.667Z,7.91
2022-08-17T22:09:21.153Z,11.79
2022-08-17T22:19:29.791Z,12.34
2022-08-17T22:29:38.467Z,9.87
2022-08-17T22:39:47.231Z,11.71
2022-08-17T22:49:54.637Z,11.19
2022-08-17T23:00:06.700Z,10.38
2022-08-17T23:10:05.394Z,10.55
2022-08-17T23:20:13.177Z,9.34
2022-08-17T23:30:21.357Z,8.43
2022-08-17T23:40:29.877Z,11.56
2022-08-17T23:50:36.927Z,10.22
